createdAt,value
2018-05-03T00:00:11.961Z,1014.98
2018-05-03T00:01:39.315Z,1014.96
2018-05-03T00:03:06.522Z,1014.93
2018-05-03T00:04:33.838Z,1014.90
2018-05-03T00:06:01.235Z,1014.89
2018-05-03T00:07:28.612Z,1014.88
2018-05-03T00:08:56.027Z,1014.87
2018-05-03T00:10:23.241Z,1014.87
2018-05-03T00:11:50.506Z,1014.85
2018-05-03T00:13:17.376Z,1014.84
2018-05-03T00:14:44.814Z,1014.83
2018-05-03T00:16:12.091Z,1014.83
2018-05-03T00:17:39.500Z,1014.82
2018-05-03T00:19:06.779Z,1014.80
2018-05-03T00:20:34.096Z,1014.81
2018-05-03T00:22:01.487Z,1014.80
2018-05-03T00:23:28.697Z,1014.80
2018-05-03T00:24:55.948Z,1014.79
2018-05-03T00:26:23.271Z,1014.80
2018-05-03T00:27:50.563Z,1014.77
2018-05-03T00:29:17.816Z,1014.77
2018-05-03T00:30:45.193Z,1014.75
2018-05-03T00:32:12.668Z,1014.74
2018-05-03T00:33:39.932Z,1014.72
2018-05-03T00:35:07.310Z,1014.74
2018-05-03T00:36:34.663Z,1014.74
2018-05-03T00:38:01.963Z,1014.78
2018-05-03T00:39:29.237Z,1014.83
2018-05-03T00:40:56.708Z,1014.83
2018-05-03T00:42:23.928Z,1014.82
2018-05-03T00:43:51.193Z,1014.82
2018-05-03T00:45:18.485Z,1014.77
2018-05-03T00:46:45.736Z,1014.77
2018-05-03T00:48:13.169Z,1014.75
2018-05-03T00:49:40.396Z,1014.74
2018-05-03T00:51:07.742Z,1014.72
2018-05-03T00:52:35.008Z,1014.67
2018-05-03T00:54:02.215Z,1014.66
2018-05-03T00:55:29.553Z,1014.66
2018-05-03T00:56:56.798Z,1014.70
2018-05-03T00:58:24.256Z,1014.67
2018-05-03T00:59:51.476Z,1014.65
2018-05-03T01:01:18.852Z,1014.62
2018-05-03T01:02:46.232Z,1014.60
2018-05-03T01:04:13.276Z,1014.61
2018-05-03T01:05:40.648Z,1014.61
2018-05-03T01:07:08.059Z,1014.61
2018-05-03T01:08:35.445Z,1014.62
2018-05-03T01:10:02.793Z,1014.60
2018-05-03T01:11:30.319Z,1014.57
2018-05-03T01:12:57.444Z,1014.55
2018-05-03T01:14:24.886Z,1014.50
2018-05-03T01:15:52.026Z,1014.51
2018-05-03T01:17:19.326Z,1014.47
2018-05-03T01:18:46.616Z,1014.43
2018-05-03T01:20:14.044Z,1014.38
2018-05-03T01:21:41.370Z,1014.37
2018-05-03T01:23:08.596Z,1014.37
2018-05-03T01:24:35.894Z,1014.39
2018-05-03T01:26:03.258Z,1014.38
2018-05-03T01:27:30.617Z,1014.38
2018-05-03T01:28:58.006Z,1014.36
2018-05-03T01:30:25.295Z,1014.38
2018-05-03T01:31:52.610Z,1014.41
2018-05-03T01:33:19.838Z,1014.43
2018-05-03T01:34:47.046Z,1014.47
2018-05-03T01:36:14.275Z,1014.50
2018-05-03T01:37:41.522Z,1014.50
2018-05-03T01:39:08.850Z,1014.50
2018-05-03T01:40:36.368Z,1014.47
2018-05-03T01:42:03.548Z,1014.45
2018-05-03T01:43:30.784Z,1014.44
2018-05-03T01:44:58.171Z,1014.40
2018-05-03T01:46:25.620Z,1014.39
2018-05-03T01:47:52.831Z,1014.38
2018-05-03T01:49:20.155Z,1014.39
2018-05-03T01:50:47.261Z,1014.39
2018-05-03T01:52:14.614Z,1014.38
2018-05-03T01:53:41.827Z,1014.38
2018-05-03T01:55:09.252Z,1014.39
2018-05-03T01:56:36.488Z,1014.35
2018-05-03T01:58:03.756Z,1014.36
2018-05-03T01:59:30.966Z,1014.35
2018-05-03T02:00:58.134Z,1014.34
2018-05-03T02:02:25.480Z,1014.36
2018-05-03T02:03:52.703Z,1014.32
2018-05-03T02:05:19.936Z,1014.32
2018-05-03T02:06:46.861Z,1014.31
2018-05-03T02:08:14.293Z,1014.33
2018-05-03T02:09:41.553Z,1014.39
2018-05-03T02:11:08.887Z,1014.42
2018-05-03T02:12:35.974Z,1014.42
2018-05-03T02:14:03.353Z,1014.41
2018-05-03T02:15:30.713Z,1014.41
2018-05-03T02:16:57.892Z,1014.41
2018-05-03T02:18:25.335Z,1014.37
2018-05-03T02:19:52.693Z,1014.36
2018-05-03T02:21:20.192Z,1014.33
2018-05-03T02:22:46.969Z,1014.30
2018-05-03T02:24:14.197Z,1014.27
2018-05-03T02:25:41.642Z,1014.23
2018-05-03T02:27:09.132Z,1014.23
2018-05-03T02:28:36.144Z,1014.26
2018-05-03T02:30:03.423Z,1014.27
2018-05-03T02:31:30.786Z,1014.27
2018-05-03T02:32:58.049Z,1014.29
2018-05-03T02:34:25.355Z,1014.30
2018-05-03T02:35:52.723Z,1014.29
2018-05-03T02:37:19.890Z,1014.29
2018-05-03T02:38:46.936Z,1014.27
2018-05-03T02:40:14.217Z,1014.24
2018-05-03T02:41:41.574Z,1014.23
2018-05-03T02:43:08.905Z,1014.22
2018-05-03T02:44:36.272Z,1014.22
2018-05-03T02:46:03.603Z,1014.21
2018-05-03T02:47:30.875Z,1014.20
2018-05-03T02:48:58.209Z,1014.17
2018-05-03T02:50:25.547Z,1014.14
2018-05-03T02:51:52.744Z,1014.14
2018-05-03T02:53:19.883Z,1014.18
2018-05-03T02:54:46.880Z,1014.23
2018-05-03T02:56:14.284Z,1014.27
2018-05-03T02:57:41.508Z,1014.29
2018-05-03T02:59:08.932Z,1014.30
2018-05-03T03:00:36.286Z,1014.29
2018-05-03T03:02:03.566Z,1014.32
2018-05-03T03:03:30.652Z,1014.31
2018-05-03T03:04:57.881Z,1014.34
2018-05-03T03:06:25.334Z,1014.35
2018-05-03T03:07:52.520Z,1014.34
2018-05-03T03:09:19.702Z,1014.32
2018-05-03T03:10:47.151Z,1014.34
2018-05-03T03:12:14.610Z,1014.34
2018-05-03T03:13:41.811Z,1014.35
2018-05-03T03:15:09.083Z,1014.33
2018-05-03T03:16:36.399Z,1014.33
2018-05-03T03:18:03.827Z,1014.34
2018-05-03T03:19:31.136Z,1014.37
2018-05-03T03:20:58.405Z,1014.37
2018-05-03T03:22:25.673Z,1014.36
2018-05-03T03:23:52.946Z,1014.33
2018-05-03T03:25:20.329Z,1014.31
2018-05-03T03:26:47.430Z,1014.28
2018-05-03T03:28:14.745Z,1014.28
2018-05-03T03:29:42.043Z,1014.30
2018-05-03T03:31:09.334Z,1014.29
2018-05-03T03:32:36.666Z,1014.26
2018-05-03T03:34:03.827Z,1014.23
2018-05-03T03:35:31.158Z,1014.18
2018-05-03T03:36:58.447Z,1014.15
2018-05-03T03:38:25.799Z,1014.11
2018-05-03T03:39:53.050Z,1014.12
2018-05-03T03:41:20.353Z,1014.12
2018-05-03T03:42:47.457Z,1014.12
2018-05-03T03:44:14.789Z,1014.11
2018-05-03T03:45:42.117Z,1014.06
2018-05-03T03:47:09.373Z,1014.04
2018-05-03T03:48:36.802Z,1014.04
2018-05-03T03:50:04.084Z,1014.03
2018-05-03T03:51:31.354Z,1014.03
2018-05-03T03:52:58.763Z,1014.05
2018-05-03T03:54:26.091Z,1014.06
2018-05-03T03:55:53.424Z,1014.08
2018-05-03T03:57:20.779Z,1014.07
2018-05-03T03:58:47.924Z,1014.06
2018-05-03T04:00:15.145Z,1014.08
2018-05-03T04:01:42.403Z,1014.09
2018-05-03T04:03:09.763Z,1014.14
2018-05-03T04:04:37.037Z,1014.13
2018-05-03T04:06:04.487Z,1014.16
2018-05-03T04:07:31.921Z,1014.15
2018-05-03T04:08:59.322Z,1014.18
2018-05-03T04:10:26.606Z,1014.21
2018-05-03T04:11:53.823Z,1014.21
2018-05-03T04:13:21.096Z,1014.22
2018-05-03T04:14:48.226Z,1014.20
2018-05-03T04:16:15.545Z,1014.17
2018-05-03T04:17:43.018Z,1014.16
2018-05-03T04:19:10.147Z,1014.16
2018-05-03T04:20:37.372Z,1014.14
2018-05-03T04:22:04.585Z,1014.13
2018-05-03T04:23:31.911Z,1014.10
2018-05-03T04:24:59.041Z,1014.09
2018-05-03T04:26:26.484Z,1014.10
2018-05-03T04:27:53.861Z,1014.12
2018-05-03T04:29:21.200Z,1014.10
2018-05-03T04:30:48.359Z,1014.11
2018-05-03T04:32:15.647Z,1014.12
2018-05-03T04:33:43.088Z,1014.12
2018-05-03T04:35:10.574Z,1014.13
2018-05-03T04:36:37.934Z,1014.14
2018-05-03T04:38:05.349Z,1014.13
2018-05-03T04:39:32.610Z,1014.11
2018-05-03T04:40:59.842Z,1014.10
2018-05-03T04:42:27.235Z,1014.13
2018-05-03T04:43:54.635Z,1014.15
2018-05-03T04:45:21.965Z,1014.23
2018-05-03T04:46:49.164Z,1014.24
2018-05-03T04:48:16.688Z,1014.24
2018-05-03T04:49:43.939Z,1014.23
2018-05-03T04:51:11.301Z,1014.20
2018-05-03T04:52:38.590Z,1014.19
2018-05-03T04:54:05.796Z,1014.21
2018-05-03T04:55:33.146Z,1014.25
2018-05-03T04:57:00.454Z,1014.25
2018-05-03T04:58:27.667Z,1014.27
2018-05-03T04:59:55.143Z,1014.25
2018-05-03T05:01:22.336Z,1014.26
2018-05-03T05:02:49.515Z,1014.25
2018-05-03T05:04:16.871Z,1014.25
2018-05-03T05:05:44.087Z,1014.23
2018-05-03T05:07:11.535Z,1014.25
2018-05-03T05:08:38.996Z,1014.27
2018-05-03T05:10:06.253Z,1014.27
2018-05-03T05:11:33.480Z,1014.30
2018-05-03T05:13:00.741Z,1014.34
2018-05-03T05:14:28.126Z,1014.40
2018-05-03T05:15:55.548Z,1014.43
2018-05-03T05:17:22.708Z,1014.42
2018-05-03T05:18:49.961Z,1014.38
2018-05-03T05:20:20.048Z,1014.38
2018-05-03T05:21:44.297Z,1014.40
2018-05-03T05:23:11.837Z,1014.42
2018-05-03T05:24:42.173Z,1014.41
2018-05-03T05:26:06.343Z,1014.42
2018-05-03T05:27:33.504Z,1014.42
2018-05-03T05:29:00.872Z,1014.43
2018-05-03T05:30:28.212Z,1014.44
2018-05-03T05:31:55.444Z,1014.46
2018-05-03T05:33:22.810Z,1014.48
2018-05-03T05:34:50.036Z,1014.50
2018-05-03T05:36:17.285Z,1014.49
2018-05-03T05:37:44.641Z,1014.49
2018-05-03T05:39:12.143Z,1014.46
2018-05-03T05:40:39.589Z,1014.48
2018-05-03T05:42:07.083Z,1014.49
2018-05-03T05:43:34.365Z,1014.50
2018-05-03T05:45:01.670Z,1014.54
2018-05-03T05:46:28.948Z,1014.56
2018-05-03T05:47:56.213Z,1014.53
2018-05-03T05:49:23.754Z,1014.54
2018-05-03T05:50:51.111Z,1014.50
2018-05-03T05:52:18.029Z,1014.49
2018-05-03T05:53:45.445Z,1014.50
2018-05-03T05:55:12.661Z,1014.52
2018-05-03T05:56:40.162Z,1014.52
2018-05-03T05:58:07.464Z,1014.56
2018-05-03T05:59:34.727Z,1014.53
2018-05-03T06:01:02.189Z,1014.51
2018-05-03T06:02:29.570Z,1014.52
2018-05-03T06:03:56.716Z,1014.52
2018-05-03T06:05:24.269Z,1014.56
2018-05-03T06:06:51.624Z,1014.59
2018-05-03T06:08:18.956Z,1014.61
2018-05-03T06:09:46.268Z,1014.63
2018-05-03T06:11:13.728Z,1014.61
2018-05-03T06:12:41.095Z,1014.63
2018-05-03T06:14:08.554Z,1014.66
2018-05-03T06:15:35.746Z,1014.70
2018-05-03T06:17:03.407Z,1014.73
2018-05-03T06:18:30.553Z,1014.75
2018-05-03T06:19:57.818Z,1014.81
2018-05-03T06:21:25.246Z,1014.82
2018-05-03T06:22:52.499Z,1014.86
2018-05-03T06:24:19.810Z,1014.86
2018-05-03T06:25:46.820Z,1014.89
2018-05-03T06:27:14.193Z,1014.88
2018-05-03T06:28:41.571Z,1014.89
2018-05-03T06:30:08.958Z,1014.88
2018-05-03T06:31:36.171Z,1014.90
2018-05-03T06:33:03.766Z,1014.95
2018-05-03T06:34:31.184Z,1014.94
2018-05-03T06:35:58.630Z,1014.94
2018-05-03T06:37:25.910Z,1014.93
2018-05-03T06:38:53.140Z,1014.97
2018-05-03T06:40:20.718Z,1015.00
2018-05-03T06:41:47.772Z,1015.01
2018-05-03T06:43:15.086Z,1015.04
2018-05-03T06:44:42.423Z,1015.09
2018-05-03T06:46:09.924Z,1015.15
2018-05-03T06:47:37.226Z,1015.18
2018-05-03T06:49:04.658Z,1015.22
2018-05-03T06:50:32.068Z,1015.25
2018-05-03T06:51:59.686Z,1015.26
2018-05-03T06:53:26.928Z,1015.23
2018-05-03T06:54:54.256Z,1015.26
2018-05-03T06:56:21.417Z,1015.25
2018-05-03T06:57:48.442Z,1015.24
2018-05-03T06:59:15.887Z,1015.24
2018-05-03T07:00:43.270Z,1015.28
2018-05-03T07:02:10.657Z,1015.28
2018-05-03T07:03:38.077Z,1015.32
2018-05-03T07:05:05.396Z,1015.34
2018-05-03T07:06:32.975Z,1015.33
2018-05-03T07:08:00.349Z,1015.43
2018-05-03T07:09:27.833Z,1015.44
2018-05-03T07:10:55.209Z,1015.46
2018-05-03T07:12:22.431Z,1015.51
2018-05-03T07:13:49.743Z,1015.52
2018-05-03T07:15:17.040Z,1015.56
2018-05-03T07:16:44.441Z,1015.60
2018-05-03T07:18:11.719Z,1015.57
2018-05-03T07:19:39.044Z,1015.60
2018-05-03T07:21:06.537Z,1015.57
2018-05-03T07:22:34.154Z,1015.57
2018-05-03T07:24:01.242Z,1015.61
2018-05-03T07:25:28.664Z,1015.66
2018-05-03T07:26:55.953Z,1015.65
2018-05-03T07:28:23.354Z,1015.66
2018-05-03T07:29:50.661Z,1015.68
2018-05-03T07:31:17.904Z,1015.69
2018-05-03T07:32:45.443Z,1015.69
2018-05-03T07:34:12.708Z,1015.71
2018-05-03T07:35:40.045Z,1015.68
2018-05-03T07:37:07.668Z,1015.65
2018-05-03T07:38:35.091Z,1015.66
2018-05-03T07:40:02.532Z,1015.65
2018-05-03T07:41:29.843Z,1015.69
2018-05-03T07:42:57.332Z,1015.72
2018-05-03T07:44:24.683Z,1015.77
2018-05-03T07:45:51.996Z,1015.80
2018-05-03T07:47:19.274Z,1015.80
2018-05-03T07:48:46.741Z,1015.75
2018-05-03T07:50:14.100Z,1015.78
2018-05-03T07:51:41.587Z,1015.78
2018-05-03T07:53:09.198Z,1015.85
2018-05-03T07:54:36.487Z,1015.85
2018-05-03T07:56:03.998Z,1015.88
2018-05-03T07:57:31.316Z,1015.89
2018-05-03T07:58:58.640Z,1015.92
2018-05-03T08:00:26.219Z,1015.97
2018-05-03T08:01:53.568Z,1015.99
2018-05-03T08:03:20.967Z,1015.95
2018-05-03T08:04:48.529Z,1016.04
2018-05-03T08:06:15.811Z,1016.06
2018-05-03T08:07:43.134Z,1016.06
2018-05-03T08:09:10.608Z,1016.08
2018-05-03T08:10:38.073Z,1016.06
2018-05-03T08:12:05.456Z,1016.12
2018-05-03T08:13:33.001Z,1016.11
2018-05-03T08:15:00.385Z,1016.11
2018-05-03T08:16:27.794Z,1016.11
2018-05-03T08:17:55.250Z,1016.16
2018-05-03T08:19:22.743Z,1016.16
2018-05-03T08:20:49.790Z,1016.20
2018-05-03T08:22:17.483Z,1016.21
2018-05-03T08:23:45.018Z,1016.25
2018-05-03T08:25:12.415Z,1016.28
2018-05-03T08:26:39.816Z,1016.29
2018-05-03T08:28:07.167Z,1016.29
2018-05-03T08:29:34.454Z,1016.32
2018-05-03T08:31:01.409Z,1016.37
2018-05-03T08:32:28.827Z,1016.40
2018-05-03T08:33:56.302Z,1016.43
2018-05-03T08:35:23.507Z,1016.43
2018-05-03T08:36:50.993Z,1016.48
2018-05-03T08:38:18.273Z,1016.49
2018-05-03T08:39:45.782Z,1016.52
2018-05-03T08:41:13.150Z,1016.59
2018-05-03T08:42:40.616Z,1016.62
2018-05-03T08:44:07.795Z,1016.67
2018-05-03T08:45:35.067Z,1016.68
2018-05-03T08:47:02.355Z,1016.77
2018-05-03T08:48:29.711Z,1016.80
2018-05-03T08:49:57.054Z,1016.83
2018-05-03T08:51:24.601Z,1016.86
2018-05-03T08:52:52.014Z,1016.88
2018-05-03T08:54:19.362Z,1016.92
2018-05-03T08:55:47.171Z,1016.93
2018-05-03T08:57:14.702Z,1016.93
2018-05-03T08:58:42.066Z,1016.94
2018-05-03T09:00:08.944Z,1016.98
2018-05-03T09:01:36.528Z,1016.99
2018-05-03T09:03:11.913Z,1017.02
2018-05-03T09:04:31.252Z,1017.03
2018-05-03T09:05:58.386Z,1017.08
2018-05-03T09:07:25.701Z,1017.09
2018-05-03T09:08:53.282Z,1017.14
2018-05-03T09:10:20.401Z,1017.15
2018-05-03T09:11:47.695Z,1017.17
2018-05-03T09:13:14.689Z,1017.23
2018-05-03T09:14:42.006Z,1017.21
2018-05-03T09:16:09.476Z,1017.25
2018-05-03T09:17:36.852Z,1017.25
2018-05-03T09:19:04.284Z,1017.25
2018-05-03T09:20:31.450Z,1017.26
2018-05-03T09:21:58.771Z,1017.22
2018-05-03T09:23:26.340Z,1017.25
2018-05-03T09:24:53.488Z,1017.31
2018-05-03T09:26:20.737Z,1017.31
2018-05-03T09:27:47.889Z,1017.33
2018-05-03T09:29:15.065Z,1017.41
2018-05-03T09:30:42.219Z,1017.42
2018-05-03T09:32:09.468Z,1017.50
2018-05-03T09:33:36.600Z,1017.56
2018-05-03T09:35:04.281Z,1017.61
2018-05-03T09:36:31.358Z,1017.65
2018-05-03T09:37:58.849Z,1017.66
2018-05-03T09:39:26.163Z,1017.68
2018-05-03T09:40:53.597Z,1017.74
2018-05-03T09:42:20.694Z,1017.81
2018-05-03T09:43:48.109Z,1017.84
2018-05-03T09:45:15.249Z,1017.86
2018-05-03T09:46:42.131Z,1017.85
2018-05-03T09:48:09.432Z,1017.89
2018-05-03T09:49:36.696Z,1017.91
2018-05-03T09:51:04.081Z,1017.89
2018-05-03T09:52:31.625Z,1017.99
2018-05-03T09:53:59.142Z,1018.00
2018-05-03T09:55:26.509Z,1018.05
2018-05-03T09:56:53.609Z,1018.03
2018-05-03T09:58:21.095Z,1018.11
2018-05-03T09:59:48.383Z,1018.16
2018-05-03T10:01:15.725Z,1018.16
2018-05-03T10:02:43.002Z,1018.18
2018-05-03T10:04:10.445Z,1018.24
2018-05-03T10:05:37.751Z,1018.25
2018-05-03T10:07:05.365Z,1018.29
2018-05-03T10:08:32.757Z,1018.26
2018-05-03T10:10:00.033Z,1018.30
2018-05-03T10:11:27.081Z,1018.34
2018-05-03T10:12:54.511Z,1018.34
2018-05-03T10:14:21.742Z,1018.36
2018-05-03T10:15:49.268Z,1018.39
2018-05-03T10:17:16.527Z,1018.38
2018-05-03T10:18:43.959Z,1018.46
2018-05-03T10:20:11.273Z,1018.43
2018-05-03T10:21:38.929Z,1018.48
2018-05-03T10:23:06.261Z,1018.47
2018-05-03T10:24:33.735Z,1018.50
2018-05-03T10:26:00.935Z,1018.57
2018-05-03T10:27:28.437Z,1018.54
2018-05-03T10:28:55.771Z,1018.57
2018-05-03T10:30:22.846Z,1018.57
2018-05-03T10:31:50.167Z,1018.55
2018-05-03T10:33:17.300Z,1018.55
2018-05-03T10:34:44.700Z,1018.59
2018-05-03T10:36:12.179Z,1018.63
2018-05-03T10:37:39.209Z,1018.64
2018-05-03T10:39:06.677Z,1018.67
2018-05-03T10:40:34.064Z,1018.69
2018-05-03T10:42:01.467Z,1018.73
2018-05-03T10:43:28.844Z,1018.74
2018-05-03T10:44:56.465Z,1018.78
2018-05-03T10:46:23.755Z,1018.83
2018-05-03T10:47:51.033Z,1018.79
2018-05-03T10:49:18.234Z,1018.84
2018-05-03T10:50:45.296Z,1018.86
2018-05-03T10:52:12.595Z,1018.89
2018-05-03T10:53:40.095Z,1018.87
2018-05-03T10:55:07.532Z,1018.91
2018-05-03T10:56:35.006Z,1018.92
2018-05-03T10:58:02.359Z,1018.96
2018-05-03T10:59:29.826Z,1018.93
2018-05-03T11:00:57.247Z,1018.94
2018-05-03T11:02:24.516Z,1019.02
2018-05-03T11:03:51.303Z,1018.97
2018-05-03T11:05:18.872Z,1018.99
2018-05-03T11:06:46.225Z,1019.01
2018-05-03T11:08:13.668Z,1019.04
2018-05-03T11:09:41.015Z,1019.03
2018-05-03T11:11:08.637Z,1019.04
2018-05-03T11:12:35.779Z,1018.99
2018-05-03T11:14:03.169Z,1019.05
2018-05-03T11:15:30.575Z,1019.09
2018-05-03T11:16:58.037Z,1019.12
2018-05-03T11:18:25.609Z,1019.18
2018-05-03T11:19:52.941Z,1019.20
2018-05-03T11:21:20.290Z,1019.28
2018-05-03T11:22:47.681Z,1019.26
2018-05-03T11:24:15.043Z,1019.34
2018-05-03T11:25:42.604Z,1019.29
2018-05-03T11:27:10.129Z,1019.35
2018-05-03T11:28:37.498Z,1019.38
2018-05-03T11:30:05.011Z,1019.46
2018-05-03T11:31:32.528Z,1019.50
2018-05-03T11:33:00.127Z,1019.50
2018-05-03T11:34:27.348Z,1019.47
2018-05-03T11:35:54.804Z,1019.49
2018-05-03T11:37:22.377Z,1019.56
2018-05-03T11:38:49.739Z,1019.59
2018-05-03T11:40:17.151Z,1019.61
2018-05-03T11:41:44.495Z,1019.57
2018-05-03T11:43:11.912Z,1019.62
2018-05-03T11:44:39.371Z,1019.59
2018-05-03T11:46:06.785Z,1019.59
2018-05-03T11:47:34.274Z,1019.61
2018-05-03T11:49:01.718Z,1019.59
2018-05-03T11:50:29.266Z,1019.62
2018-05-03T11:51:56.658Z,1019.64
2018-05-03T11:53:23.989Z,1019.59
2018-05-03T11:54:51.616Z,1019.61
2018-05-03T11:56:19.097Z,1019.61
2018-05-03T11:57:46.535Z,1019.57
2018-05-03T11:59:13.966Z,1019.64
2018-05-03T12:00:41.293Z,1019.61
2018-05-03T12:02:08.738Z,1019.61
2018-05-03T12:03:36.303Z,1019.68
2018-05-03T12:05:03.726Z,1019.67
2018-05-03T12:06:31.308Z,1019.66
2018-05-03T12:07:58.845Z,1019.68
2018-05-03T12:09:26.260Z,1019.69
2018-05-03T12:10:53.810Z,1019.71
2018-05-03T12:12:21.152Z,1019.69
2018-05-03T12:13:48.453Z,1019.71
2018-05-03T12:15:15.789Z,1019.71
2018-05-03T12:16:43.133Z,1019.74
2018-05-03T12:18:10.348Z,1019.81
2018-05-03T12:19:37.741Z,1019.84
2018-05-03T12:21:05.073Z,1019.80
2018-05-03T12:22:32.344Z,1019.84
2018-05-03T12:23:59.669Z,1019.83
2018-05-03T12:25:26.640Z,1019.84
2018-05-03T12:26:54.084Z,1019.90
2018-05-03T12:28:21.456Z,1019.84
2018-05-03T12:29:48.814Z,1019.80
2018-05-03T12:31:16.429Z,1019.87
2018-05-03T12:32:43.996Z,1019.93
2018-05-03T12:34:11.295Z,1019.93
2018-05-03T12:35:38.893Z,1019.96
2018-05-03T12:37:06.338Z,1019.98
2018-05-03T12:38:33.609Z,1020.00
2018-05-03T12:40:00.947Z,1020.04
2018-05-03T12:41:28.640Z,1020.04
2018-05-03T12:42:56.000Z,1020.04
2018-05-03T12:44:23.397Z,1020.07
2018-05-03T12:45:50.835Z,1020.07
2018-05-03T12:47:18.047Z,1020.08
2018-05-03T12:48:45.540Z,1020.09
2018-05-03T12:50:12.981Z,1020.11
2018-05-03T12:51:40.488Z,1020.15
2018-05-03T12:53:07.886Z,1020.16
2018-05-03T12:54:35.540Z,1020.17
2018-05-03T12:56:02.851Z,1020.14
2018-05-03T12:57:30.231Z,1020.17
2018-05-03T12:58:57.790Z,1020.18
2018-05-03T13:00:25.249Z,1020.22
2018-05-03T13:01:52.530Z,1020.25
2018-05-03T13:03:19.928Z,1020.22
2018-05-03T13:04:47.676Z,1020.24
2018-05-03T13:06:15.035Z,1020.22
2018-05-03T13:07:42.459Z,1020.17
2018-05-03T13:09:10.014Z,1020.21
2018-05-03T13:10:37.527Z,1020.23
2018-05-03T13:12:05.006Z,1020.27
2018-05-03T13:13:32.379Z,1020.27
2018-05-03T13:15:00.703Z,1020.33
2018-05-03T13:16:27.332Z,1020.32
2018-05-03T13:17:54.914Z,1020.35
2018-05-03T13:19:22.053Z,1020.39
2018-05-03T13:20:49.452Z,1020.39
2018-05-03T13:22:16.983Z,1020.41
2018-05-03T13:23:44.091Z,1020.40
2018-05-03T13:25:11.549Z,1020.39
2018-05-03T13:26:38.826Z,1020.38
2018-05-03T13:28:06.312Z,1020.41
2018-05-03T13:29:33.446Z,1020.43
2018-05-03T13:31:00.736Z,1020.43
2018-05-03T13:32:28.138Z,1020.44
2018-05-03T13:33:55.493Z,1020.46
2018-05-03T13:35:22.797Z,1020.45
2018-05-03T13:36:49.861Z,1020.50
2018-05-03T13:38:17.280Z,1020.55
2018-05-03T13:39:44.700Z,1020.58
2018-05-03T13:41:12.058Z,1020.57
2018-05-03T13:42:39.520Z,1020.56
2018-05-03T13:44:07.082Z,1020.55
2018-05-03T13:45:34.045Z,1020.62
2018-05-03T13:47:01.525Z,1020.61
2018-05-03T13:48:28.679Z,1020.61
2018-05-03T13:49:58.987Z,1020.63
2018-05-03T13:51:22.990Z,1020.64
2018-05-03T13:52:50.326Z,1020.63
2018-05-03T13:54:17.717Z,1020.62
2018-05-03T13:55:45.100Z,1020.61
2018-05-03T13:57:12.583Z,1020.61
2018-05-03T13:58:40.045Z,1020.60
2018-05-03T14:00:07.599Z,1020.63
2018-05-03T14:01:34.709Z,1020.62
2018-05-03T14:03:02.224Z,1020.59
2018-05-03T14:04:29.547Z,1020.58
2018-05-03T14:05:56.879Z,1020.58
2018-05-03T14:07:24.269Z,1020.57
2018-05-03T14:08:51.564Z,1020.49
2018-05-03T14:10:18.751Z,1020.52
2018-05-03T14:11:46.251Z,1020.57
2018-05-03T14:13:13.482Z,1020.57
2018-05-03T14:14:41.005Z,1020.59
2018-05-03T14:16:08.515Z,1020.59
2018-05-03T14:17:36.121Z,1020.59
2018-05-03T14:19:03.145Z,1020.60
2018-05-03T14:20:30.622Z,1020.59
2018-05-03T14:21:57.570Z,1020.58
2018-05-03T14:23:24.560Z,1020.59
2018-05-03T14:24:52.038Z,1020.67
2018-05-03T14:26:19.363Z,1020.68
2018-05-03T14:27:46.365Z,1020.69
2018-05-03T14:29:13.631Z,1020.71
2018-05-03T14:30:41.208Z,1020.70
2018-05-03T14:32:08.546Z,1020.71
2018-05-03T14:33:35.764Z,1020.67
2018-05-03T14:35:03.209Z,1020.64
2018-05-03T14:36:30.508Z,1020.67
2018-05-03T14:37:57.826Z,1020.67
2018-05-03T14:39:25.454Z,1020.68
2018-05-03T14:40:52.749Z,1020.68
2018-05-03T14:42:19.917Z,1020.69
2018-05-03T14:43:47.641Z,1020.72
2018-05-03T14:45:14.990Z,1020.76
2018-05-03T14:46:42.360Z,1020.79
2018-05-03T14:48:09.700Z,1020.80
2018-05-03T14:49:37.061Z,1020.80
2018-05-03T14:51:04.321Z,1020.75
2018-05-03T14:52:31.995Z,1020.76
2018-05-03T14:53:59.307Z,1020.76
2018-05-03T14:55:26.713Z,1020.74
2018-05-03T14:56:54.095Z,1020.75
2018-05-03T14:58:21.626Z,1020.70
2018-05-03T14:59:48.889Z,1020.78
2018-05-03T15:01:16.431Z,1020.78
2018-05-03T15:02:43.802Z,1020.78
2018-05-03T15:04:11.174Z,1020.78
2018-05-03T15:05:38.530Z,1020.77
2018-05-03T15:07:05.705Z,1020.78
2018-05-03T15:08:33.174Z,1020.78
2018-05-03T15:10:00.576Z,1020.81
2018-05-03T15:11:27.882Z,1020.80
2018-05-03T15:12:55.243Z,1020.83
2018-05-03T15:14:22.578Z,1020.86
2018-05-03T15:15:50.039Z,1020.91
2018-05-03T15:17:17.415Z,1020.92
2018-05-03T15:18:44.752Z,1020.93
2018-05-03T15:20:12.141Z,1020.96
2018-05-03T15:21:39.605Z,1021.02
2018-05-03T15:23:07.108Z,1021.07
2018-05-03T15:24:34.395Z,1021.11
2018-05-03T15:26:01.546Z,1021.09
2018-05-03T15:27:28.835Z,1021.08
2018-05-03T15:28:56.189Z,1021.08
2018-05-03T15:30:23.477Z,1021.07
2018-05-03T15:31:50.734Z,1021.09
2018-05-03T15:33:17.954Z,1021.09
2018-05-03T15:34:45.470Z,1021.11
2018-05-03T15:36:12.623Z,1021.14
2018-05-03T15:37:39.983Z,1021.19
2018-05-03T15:39:07.526Z,1021.20
2018-05-03T15:40:34.695Z,1021.23
2018-05-03T15:42:02.000Z,1021.23
2018-05-03T15:43:29.619Z,1021.23
2018-05-03T15:44:56.875Z,1021.19
2018-05-03T15:46:24.106Z,1021.20
2018-05-03T15:47:51.447Z,1021.20
2018-05-03T15:49:18.789Z,1021.20
2018-05-03T15:50:46.191Z,1021.20
2018-05-03T15:52:13.671Z,1021.25
2018-05-03T15:53:41.209Z,1021.29
2018-05-03T15:55:08.637Z,1021.32
2018-05-03T15:56:36.321Z,1021.33
2018-05-03T15:58:03.759Z,1021.37
2018-05-03T15:59:31.248Z,1021.34
2018-05-03T16:00:58.404Z,1021.33
2018-05-03T16:02:25.944Z,1021.31
2018-05-03T16:03:53.232Z,1021.33
2018-05-03T16:05:20.334Z,1021.35
2018-05-03T16:06:47.339Z,1021.40
2018-05-03T16:08:14.783Z,1021.42
2018-05-03T16:09:42.192Z,1021.44
2018-05-03T16:11:09.550Z,1021.42
2018-05-03T16:12:40.114Z,1021.39
2018-05-03T16:14:04.483Z,1021.40
2018-05-03T16:15:31.847Z,1021.39
2018-05-03T16:16:59.162Z,1021.38
2018-05-03T16:18:26.600Z,1021.38
2018-05-03T16:19:53.909Z,1021.44
2018-05-03T16:21:21.286Z,1021.46
2018-05-03T16:22:48.531Z,1021.50
2018-05-03T16:24:15.995Z,1021.51
2018-05-03T16:25:43.458Z,1021.54
2018-05-03T16:27:10.858Z,1021.57
2018-05-03T16:28:38.091Z,1021.57
2018-05-03T16:30:05.558Z,1021.55
2018-05-03T16:31:32.862Z,1021.57
2018-05-03T16:33:00.255Z,1021.63
2018-05-03T16:34:27.675Z,1021.65
2018-05-03T16:35:55.047Z,1021.69
2018-05-03T16:37:22.738Z,1021.70
2018-05-03T16:38:49.864Z,1021.73
2018-05-03T16:40:17.209Z,1021.74
2018-05-03T16:41:44.321Z,1021.78
2018-05-03T16:43:11.672Z,1021.80
2018-05-03T16:44:38.896Z,1021.82
2018-05-03T16:46:06.327Z,1021.82
2018-05-03T16:47:33.518Z,1021.86
2018-05-03T16:49:01.158Z,1021.87
2018-05-03T16:50:28.358Z,1021.83
2018-05-03T16:51:55.715Z,1021.86
2018-05-03T16:53:23.005Z,1021.88
2018-05-03T16:54:50.145Z,1021.92
2018-05-03T16:56:17.386Z,1021.91
2018-05-03T16:57:44.816Z,1021.93
2018-05-03T16:59:12.145Z,1021.94
2018-05-03T17:00:39.470Z,1021.95
2018-05-03T17:02:06.865Z,1021.99
2018-05-03T17:03:34.247Z,1022.02
2018-05-03T17:05:01.532Z,1022.04
2018-05-03T17:06:28.848Z,1022.02
2018-05-03T17:07:56.202Z,1022.03
2018-05-03T17:09:23.702Z,1022.06
2018-05-03T17:10:50.924Z,1022.06
2018-05-03T17:12:18.238Z,1022.06
2018-05-03T17:13:45.519Z,1022.06
2018-05-03T17:15:13.025Z,1022.06
2018-05-03T17:16:40.134Z,1022.11
2018-05-03T17:18:07.568Z,1022.12
2018-05-03T17:19:34.897Z,1022.14
2018-05-03T17:21:02.366Z,1022.16
2018-05-03T17:22:29.734Z,1022.17
2018-05-03T17:23:57.052Z,1022.20
2018-05-03T17:25:24.320Z,1022.21
2018-05-03T17:26:51.732Z,1022.20
2018-05-03T17:28:18.777Z,1022.18
2018-05-03T17:29:46.318Z,1022.18
2018-05-03T17:31:13.576Z,1022.18
2018-05-03T17:32:41.057Z,1022.20
2018-05-03T17:34:08.406Z,1022.23
2018-05-03T17:35:35.420Z,1022.25